Time;durP1;ratioP1;P1;durP2;ratioP2;P2;SDS_P1;SDS_P2;PMS_P1;PMS_P2;Temp;Humidity;BMP_temperature;BMP_pressure;BME280_temperature;BME280_humidity;BME280_pressure;Samples;Min_cycle;Max_cycle;Signal;HPM_P1;HPM_P2
2022/10/11 00:02:06;;;;;;;;;;;;;;;13.85;72.36;101612.16;5070359;28;19924;-69
2022/10/11 00:04:32;;;;;;;;;;;;;;;13.92;71.79;101610.91;5070676;28;19928;-69
2022/10/11 00:06:59;;;;;;;;;;;;;;;13.88;71.91;101622.53;5063220;28;19931;-69
2022/10/11 00:09:25;;;;;;;;;;;;;;;13.55;73.30;101625.13;5069615;28;19928;-69
2022/10/11 00:11:54;;;;;;;;;;;;;;;13.64;73.10;101624.63;5068727;28;19928;-69
2022/10/11 00:14:22;;;;;;;;;;;;;;;13.55;73.95;101630.38;5060421;28;20338;-69
2022/10/11 00:16:48;;;;;;;;;;;;;;;13.47;73.71;101632.53;5069669;28;19928;-69
2022/10/11 00:19:14;;;;;;;;;;;;;;;13.52;74.06;101636.66;5074572;28;19932;-69
2022/10/11 00:21:41;;;;;;;;;;;;;;;13.53;73.33;101640.97;5059863;28;19924;-69
2022/10/11 00:24:07;;;;;;;;;;;;;;;13.46;73.57;101634.31;5070216;28;19931;-69
2022/10/11 00:26:34;;;;;;;;;;;;;;;13.11;75.45;101636.06;5068076;28;19928;-69
2022/10/11 00:29:00;;;;;;;;;;;;;;;13.10;75.38;101647.50;5060330;28;20605;-69
2022/10/11 00:31:28;;;;;;;;;;;;;;;12.92;76.38;101650.13;5070400;28;19928;-69
2022/10/11 00:33:54;;;;;;;;;;;;;;;13.02;75.44;101654.88;5069971;28;19973;-69
2022/10/11 00:36:21;;;;;;;;;;;;;;;13.14;74.90;101656.09;5059577;28;19928;-69
2022/10/11 00:38:47;;;;;;;;;;;;;;;13.37;73.84;101658.50;5069989;28;20372;-69
2022/10/11 00:41:14;;;;;;;;;;;;;;;13.29;73.63;101655.38;5069307;28;20497;-69
2022/10/11 00:43:40;;;;;;;;;;;;;;;13.10;74.10;101657.19;5058721;28;19946;-69
2022/10/11 00:46:21;;;;;;;;;;;;;;;13.09;74.54;101664.22;5069670;28;19925;-69
2022/10/11 00:48:50;;;;;;;;;;;;;;;13.17;74.15;101661.22;5063264;28;20478;-69
2022/10/11 00:51:18;;;;;;;;;;;;;;;13.24;73.57;101667.91;5064157;28;20019;-69
2022/10/11 00:53:46;;;;;;;;;;;;;;;13.24;73.77;101672.31;5069105;28;19947;-69
2022/10/11 00:56:14;;;;;;;;;;;;;;;13.25;74.21;101669.63;5067855;28;19951;-69
2022/10/11 00:58:42;;;;;;;;;;;;;;;13.15;74.38;101666.53;5070745;28;19928;-69
2022/10/11 01:01:08;;;;;;;;;;;;;;;13.12;74.78;101657.94;5073490;28;20372;-69
2022/10/11 01:03:35;;;;;;;;;;;;;;;13.21;73.72;101667.19;5064114;28;19924;-69
2022/10/11 01:06:03;;;;;;;;;;;;;;;12.96;74.18;101676.22;5069237;28;19928;-69
2022/10/11 01:08:30;;;;;;;;;;;;;;;12.88;74.89;101673.09;5067264;28;19963;-69
2022/10/11 01:10:56;;;;;;;;;;;;;;;13.03;75.09;101669.75;5058917;28;20375;-69
2022/10/11 01:13:29;;;;;;;;;;;;;;;12.99;75.00;101675.22;5069619;28;19950;-69
2022/10/11 01:15:59;;;;;;;;;;;;;;;12.86;75.39;101688.09;5069457;28;19974;-69
2022/10/11 01:18:30;;;;;;;;;;;;;;;12.75;75.92;101687.72;5065097;28;19924;-69
2022/10/11 01:21:00;;;;;;;;;;;;;;;12.67;76.59;101688.06;5067504;28;20198;-69
2022/10/11 01:23:40;;;;;;;;;;;;;;;12.50;77.84;101695.03;5076499;28;19932;-69
2022/10/11 01:26:18;;;;;;;;;;;;;;;12.60;76.74;101699.81;5068819;28;19928;-69
2022/10/11 01:28:49;;;;;;;;;;;;;;;12.47;77.65;101696.03;5068238;28;20387;-68
2022/10/11 01:31:23;;;;;;;;;;;;;;;12.45;77.42;101697.03;5069551;28;19928;-69
2022/10/11 01:33:51;;;;;;;;;;;;;;;12.39;77.26;101702.53;5069063;28;20280;-69
2022/10/11 01:36:26;;;;;;;;;;;;;;;12.65;76.54;101702.22;5058811;28;20341;-69
2022/10/11 01:38:56;;;;;;;;;;;;;;;12.64;76.28;101709.25;5059894;28;19924;-69
2022/10/11 01:41:24;;;;;;;;;;;;;;;12.36;77.96;101700.03;5064643;28;19939;-69
2022/10/11 01:43:53;;;;;;;;;;;;;;;12.62;76.28;101710.28;5069070;28;19973;-69
2022/10/11 01:46:21;;;;;;;;;;;;;;;12.44;77.00;101704.06;5068467;28;19950;-69
2022/10/11 01:48:48;;;;;;;;;;;;;;;12.38;77.26;101712.19;5058138;28;19925;-69
2022/10/11 01:51:14;;;;;;;;;;;;;;;12.29;77.52;101706.50;5068594;28;19924;-69
2022/10/11 01:53:53;;;;;;;;;;;;;;;12.40;76.93;101705.09;5068212;28;20380;-69
2022/10/11 01:56:31;;;;;;;;;;;;;;;12.46;76.84;101715.34;5058009;28;19928;-69
2022/10/11 01:59:04;;;;;;;;;;;;;;;12.49;76.31;101712.56;5063474;28;20368;-69
2022/10/11 02:01:37;;;;;;;;;;;;;;;12.29;77.01;101717.00;5058005;28;19924;-69
2022/10/11 02:04:06;;;;;;;;;;;;;;;12.44;76.32;101721.59;5068102;28;19932;-69
2022/10/11 02:06:35;;;;;;;;;;;;;;;12.45;76.01;101713.63;5068106;28;19924;-69
2022/10/11 02:09:07;;;;;;;;;;;;;;;12.16;77.63;101712.28;5068007;28;20619;-69
2022/10/11 02:11:34;;;;;;;;;;;;;;;12.35;76.99;101714.97;5067815;28;19928;-69
2022/10/11 02:14:04;;;;;;;;;;;;;;;12.22;77.34;101721.69;5057670;28;19928;-69
2022/10/11 02:16:38;;;;;;;;;;;;;;;12.19;77.19;101720.03;5068660;28;19947;-69
2022/10/11 02:19:07;;;;;;;;;;;;;;;11.95;78.68;101728.97;5067709;28;19935;-69
2022/10/11 02:21:34;;;;;;;;;;;;;;;11.90;78.68;101737.97;5058339;28;19924;-69
2022/10/11 02:24:02;;;;;;;;;;;;;;;11.75;79.40;101735.97;5067250;28;20006;-69
2022/10/11 02:26:31;;;;;;;;;;;;;;;11.86;78.91;101724.06;5070095;28;19924;-69
2022/10/11 02:29:00;;;;;;;;;;;;;;;12.05;77.31;101739.94;5061867;28;19933;-68
2022/10/11 02:31:27;;;;;;;;;;;;;;;11.98;77.84;101738.47;5066527;28;20553;-68
2022/10/11 02:33:58;;;;;;;;;;;;;;;12.12;76.33;101738.78;5058723;28;19928;-68
2022/10/11 02:36:30;;;;;;;;;;;;;;;11.98;76.95;101741.97;5067023;28;20325;-69
2022/10/11 02:39:00;;;;;;;;;;;;;;;12.18;76.26;101738.50;5067599;28;20352;-68
2022/10/11 02:41:29;;;;;;;;;;;;;;;12.08;75.82;101740.66;5057708;28;19935;-68
2022/10/11 02:43:57;;;;;;;;;;;;;;;12.36;75.06;101740.34;5056341;28;19924;-68
2022/10/11 02:46:24;;;;;;;;;;;;;;;12.19;75.52;101743.69;5064136;28;19924;-68
2022/10/11 02:48:51;;;;;;;;;;;;;;;11.97;76.68;101742.06;5057046;28;19924;-69
2022/10/11 02:51:18;;;;;;;;;;;;;;;11.86;76.44;101746.88;5066852;28;19934;-68
2022/10/11 02:53:45;;;;;;;;;;;;;;;11.91;76.47;101742.28;5067902;28;19924;-68
2022/10/11 02:56:12;;;;;;;;;;;;;;;12.00;75.76;101749.81;5058178;28;19924;-68
2022/10/11 02:58:38;;;;;;;;;;;;;;;12.11;75.05;101755.47;5067057;28;19924;-69
2022/10/11 03:01:05;;;;;;;;;;;;;;;12.14;74.54;101744.81;5068381;28;20446;-69
2022/10/11 03:03:31;;;;;;;;;;;;;;;12.08;74.98;101753.78;5057714;28;20019;-69
2022/10/11 03:05:58;;;;;;;;;;;;;;;12.15;73.86;101757.06;5065906;28;19931;-69
2022/10/11 03:08:24;;;;;;;;;;;;;;;11.98;74.38;101757.75;5067637;28;20368;-69
2022/10/11 03:10:52;;;;;;;;;;;;;;;11.47;76.27;101763.28;5057663;28;19925;-69
2022/10/11 03:13:18;;;;;;;;;;;;;;;11.43;76.99;101761.69;5067250;28;19925;-69
2022/10/11 03:15:47;;;;;;;;;;;;;;;11.48;76.96;101778.13;5071097;28;19924;-68
2022/10/11 03:18:13;;;;;;;;;;;;;;;11.65;76.14;101769.59;5061393;28;19924;-68
2022/10/11 03:20:40;;;;;;;;;;;;;;;11.60;75.98;101780.25;5070076;28;20271;-68
2022/10/11 03:23:06;;;;;;;;;;;;;;;11.74;75.98;101776.28;5072161;28;19932;-68
2022/10/11 03:25:32;;;;;;;;;;;;;;;11.73;76.15;101780.69;5061487;28;19928;-69
2022/10/11 03:28:00;;;;;;;;;;;;;;;11.63;75.92;101793.31;5072168;28;20510;-69
2022/10/11 03:30:26;;;;;;;;;;;;;;;11.86;75.26;101792.41;5078565;28;19928;-67
2022/10/11 03:32:53;;;;;;;;;;;;;;;11.78;75.16;101791.88;5058997;28;19924;-67
2022/10/11 03:35:19;;;;;;;;;;;;;;;11.85;74.81;101801.22;5068458;28;19931;-67
2022/10/11 03:37:45;;;;;;;;;;;;;;;11.79;74.53;101798.81;5070671;28;19946;-68
2022/10/11 03:40:12;;;;;;;;;;;;;;;11.71;74.20;101809.63;5061050;28;19928;-68
2022/10/11 03:42:39;;;;;;;;;;;;;;;11.43;74.80;101797.59;5063043;28;20303;-68
2022/10/11 03:45:08;;;;;;;;;;;;;;;11.48;74.17;101801.78;5070947;28;19932;-68
2022/10/11 03:47:34;;;;;;;;;;;;;;;11.47;74.70;101801.81;5059777;28;19943;-68
2022/10/11 03:50:01;;;;;;;;;;;;;;;11.42;74.00;101803.78;5064946;28;19924;-68
2022/10/11 03:52:27;;;;;;;;;;;;;;;11.34;73.99;101811.09;5070439;28;20463;-68
2022/10/11 03:54:53;;;;;;;;;;;;;;;11.33;73.46;101814.63;5059840;28;19924;-68
2022/10/11 03:57:20;;;;;;;;;;;;;;;11.32;71.75;101815.53;5069405;28;20291;-69
2022/10/11 03:59:46;;;;;;;;;;;;;;;11.50;71.29;101820.94;5070787;28;19939;-69
2022/10/11 04:02:14;;;;;;;;;;;;;;;11.41;71.45;101820.44;5058952;28;19960;-69
2022/10/11 04:04:41;;;;;;;;;;;;;;;11.06;71.34;101829.63;5069044;28;20383;-68
2022/10/11 04:07:07;;;;;;;;;;;;;;;10.68;72.07;101829.22;5070527;28;19932;-68
2022/10/11 04:09:33;;;;;;;;;;;;;;;9.77;77.32;101831.34;5059804;28;19934;-68
2022/10/11 04:12:00;;;;;;;;;;;;;;;9.89;77.22;101838.84;5070366;28;19924;-68
2022/10/11 04:14:26;;;;;;;;;;;;;;;9.82;76.97;101844.31;5069143;28;20299;-68
2022/10/11 04:16:52;;;;;;;;;;;;;;;9.82;76.41;101841.69;5059993;28;19924;-68
2022/10/11 04:19:20;;;;;;;;;;;;;;;9.67;76.61;101841.28;5070042;28;19932;-68
2022/10/11 04:21:47;;;;;;;;;;;;;;;9.59;76.08;101851.13;5069836;28;19947;-68
2022/10/11 04:24:13;;;;;;;;;;;;;;;9.57;76.66;101858.13;5059283;28;20393;-68
2022/10/11 04:26:39;;;;;;;;;;;;;;;9.53;75.98;101853.94;5068872;28;19927;-69
2022/10/11 04:29:05;;;;;;;;;;;;;;;9.48;75.18;101858.44;5065122;28;20283;-69
2022/10/11 04:31:32;;;;;;;;;;;;;;;9.25;76.28;101855.59;5060066;28;19931;-69
2022/10/11 04:33:58;;;;;;;;;;;;;;;9.46;76.15;101857.59;5070233;28;19931;-69
2022/10/11 04:36:26;;;;;;;;;;;;;;;9.12;76.60;101865.59;5068494;28;20299;-68
2022/10/11 04:38:54;;;;;;;;;;;;;;;8.36;83.59;101869.31;5059430;28;19924;-68
2022/10/11 04:41:21;;;;;;;;;;;;;;;8.43;84.67;101876.13;5069773;28;19931;-68
2022/10/11 04:43:47;;;;;;;;;;;;;;;8.83;81.97;101873.38;5068537;28;19947;-68
2022/10/11 04:46:14;;;;;;;;;;;;;;;8.96;80.72;101877.34;5059673;28;19946;-68
2022/10/11 04:48:40;;;;;;;;;;;;;;;9.32;77.73;101867.63;5070925;28;19927;-68
2022/10/11 04:51:06;;;;;;;;;;;;;;;9.21;76.02;101869.69;5072388;28;19931;-68
2022/10/11 04:53:34;;;;;;;;;;;;;;;9.10;75.26;101866.50;5064725;28;19931;-68
2022/10/11 04:56:02;;;;;;;;;;;;;;;9.16;75.04;101875.03;5070138;28;19940;-68
2022/10/11 04:58:28;;;;;;;;;;;;;;;9.32;74.12;101872.84;5068308;28;20011;-68
2022/10/11 05:00:54;;;;;;;;;;;;;;;9.08;74.87;101891.88;5062743;28;19931;-68
2022/10/11 05:03:21;;;;;;;;;;;;;;;9.17;74.36;101891.59;5072128;28;19932;-68
2022/10/11 05:05:47;;;;;;;;;;;;;;;9.12;74.68;101898.72;5082395;28;19928;-68
2022/10/11 05:08:13;;;;;;;;;;;;;;;8.83;75.97;101899.50;5070331;28;19953;-69
2022/10/11 05:10:41;;;;;;;;;;;;;;;8.45;78.41;101900.47;5063852;28;19924;-68
2022/10/11 05:13:07;;;;;;;;;;;;;;;8.34;80.75;101906.84;5076894;28;19952;-69
2022/10/11 05:15:34;;;;;;;;;;;;;;;8.29;81.87;101901.72;5076211;28;19924;-68
2022/10/11 05:18:00;;;;;;;;;;;;;;;8.14;81.69;101907.28;5066309;28;19955;-68
2022/10/11 05:20:26;;;;;;;;;;;;;;;8.15;82.34;101903.78;5071169;28;20418;-68
2022/10/11 05:22:53;;;;;;;;;;;;;;;8.24;82.68;101904.41;5068774;28;20268;-68
2022/10/11 05:25:19;;;;;;;;;;;;;;;7.97;85.83;101912.91;5073899;28;19932;-68
2022/10/11 05:27:47;;;;;;;;;;;;;;;8.03;86.41;101911.88;5068242;28;19935;-68
2022/10/11 05:30:13;;;;;;;;;;;;;;;8.55;83.71;101920.25;5071973;28;19931;-68
2022/10/11 05:32:40;;;;;;;;;;;;;;;8.91;81.66;101928.06;5059167;28;19931;-68
2022/10/11 05:35:06;;;;;;;;;;;;;;;8.82;82.88;101925.69;5068085;28;19928;-68
2022/10/11 05:37:33;;;;;;;;;;;;;;;9.07;81.07;101943.34;5068656;28;19954;-68
2022/10/11 05:39:59;;;;;;;;;;;;;;;9.25;80.53;101936.75;5041671;28;19924;-68
2022/10/11 05:42:25;;;;;;;;;;;;;;;9.25;81.29;101939.34;5067763;28;19973;-68
2022/10/11 05:44:53;;;;;;;;;;;;;;;9.12;81.18;101944.06;5069371;28;19966;-68
2022/10/11 05:47:19;;;;;;;;;;;;;;;9.28;79.85;101941.88;5058119;28;19932;-68
2022/10/11 05:49:45;;;;;;;;;;;;;;;9.48;79.52;101944.81;5071697;28;19935;-68
2022/10/11 05:52:12;;;;;;;;;;;;;;;9.41;79.05;101950.28;5069070;28;20368;-68
2022/10/11 05:54:38;;;;;;;;;;;;;;;9.64;78.08;101947.88;5075649;28;19965;-68
2022/10/11 05:57:05;;;;;;;;;;;;;;;9.95;77.58;101950.44;5069225;28;19947;-68
2022/10/11 05:59:31;;;;;;;;;;;;;;;9.90;78.55;101955.84;5070743;28;19931;-68
2022/10/11 06:01:58;;;;;;;;;;;;;;;10.21;77.50;101958.41;5061422;28;19932;-68
2022/10/11 06:04:25;;;;;;;;;;;;;;;10.39;76.22;101963.06;5086566;28;19931;-68
2022/10/11 06:06:51;;;;;;;;;;;;;;;9.88;76.85;101957.63;5078428;28;20014;-68
2022/10/11 06:09:18;;;;;;;;;;;;;;;9.85;77.69;101965.59;5069781;28;19924;-68
2022/10/11 06:11:44;;;;;;;;;;;;;;;9.73;78.00;101974.66;5088737;28;20275;-68
2022/10/11 06:14:10;;;;;;;;;;;;;;;9.98;76.65;101976.53;5068322;28;21325;-68
2022/10/11 06:16:37;;;;;;;;;;;;;;;9.25;80.60;101989.94;5060676;28;19936;-68
2022/10/11 06:19:05;;;;;;;;;;;;;;;9.23;81.47;101989.13;5067569;28;19931;-68
2022/10/11 06:21:31;;;;;;;;;;;;;;;8.69;83.64;101996.59;5075009;28;20379;-68
2022/10/11 06:24:00;;;;;;;;;;;;;;;8.45;85.44;101994.56;5078318;28;19924;-68
2022/10/11 06:26:27;;;;;;;;;;;;;;;8.51;85.81;101994.41;5074323;28;19974;-68
2022/10/11 06:28:53;;;;;;;;;;;;;;;8.65;85.38;101991.47;5076425;28;19936;-68
2022/10/11 06:31:19;;;;;;;;;;;;;;;8.76;85.02;102000.78;5069397;28;20392;-68
2022/10/11 06:33:45;;;;;;;;;;;;;;;9.14;84.22;102006.81;5067576;28;19931;-68
2022/10/11 06:36:14;;;;;;;;;;;;;;;9.37;82.46;102008.84;5069612;28;20402;-68
2022/10/11 06:38:40;;;;;;;;;;;;;;;9.83;80.80;102004.03;5057681;28;20016;-68
2022/10/11 06:41:11;;;;;;;;;;;;;;;10.47;78.50;102010.03;5086000;28;19931;-68
2022/10/11 06:43:37;;;;;;;;;;;;;;;10.82;76.70;101998.44;5087738;28;20275;-69
2022/10/11 06:46:03;;;;;;;;;;;;;;;10.90;76.97;102006.91;5067092;28;19952;-68
2022/10/11 06:48:30;;;;;;;;;;;;;;;10.71;77.06;102002.28;5057084;28;19924;-68
2022/10/11 06:50:57;;;;;;;;;;;;;;;10.54;77.45;102007.16;5071055;28;19939;-68
2022/10/11 06:53:25;;;;;;;;;;;;;;;11.16;76.31;102010.38;5076474;28;20402;-68
2022/10/11 06:55:51;;;;;;;;;;;;;;;11.70;74.65;102010.22;5081462;28;19928;-69
2022/10/11 06:58:18;;;;;;;;;;;;;;;12.05;74.16;102018.59;5064253;28;20262;-68
2022/10/11 07:00:44;;;;;;;;;;;;;;;12.22;73.31;102013.56;5061697;28;20406;-68
2022/10/11 07:03:10;;;;;;;;;;;;;;;12.04;73.00;102015.13;5075379;28;19931;-68
2022/10/11 07:05:36;;;;;;;;;;;;;;;12.78;70.80;102021.00;5087392;28;20002;-68
2022/10/11 07:08:03;;;;;;;;;;;;;;;13.17;69.65;102027.28;5061466;28;20315;-68
2022/10/11 07:10:30;;;;;;;;;;;;;;;12.78;69.61;102027.13;5072152;28;19931;-68
2022/10/11 07:12:57;;;;;;;;;;;;;;;12.98;70.16;102037.69;5071617;28;20315;-68
2022/10/11 07:15:23;;;;;;;;;;;;;;;12.79;70.58;102036.72;5067953;28;19923;-68
2022/10/11 07:17:49;;;;;;;;;;;;;;;13.61;68.17;102039.41;5078780;28;19924;-68
2022/10/11 07:20:16;;;;;;;;;;;;;;;13.89;68.05;102040.84;5084494;28;19924;-68
2022/10/11 07:22:42;;;;;;;;;;;;;;;14.69;66.29;102041.50;5079621;28;19931;-69
2022/10/11 07:25:08;;;;;;;;;;;;;;;14.69;65.86;102038.88;5087186;28;19928;-69
2022/10/11 07:27:36;;;;;;;;;;;;;;;15.23;64.09;102045.84;5072254;28;20446;-69
2022/10/11 07:30:02;;;;;;;;;;;;;;;15.84;63.07;102047.09;5066782;28;19938;-69
2022/10/11 07:32:29;;;;;;;;;;;;;;;16.44;60.51;102044.72;5071387;28;19935;-69
2022/10/11 07:34:55;;;;;;;;;;;;;;;17.03;59.13;102051.97;5069855;28;19924;-70
2022/10/11 07:37:21;;;;;;;;;;;;;;;17.23;57.13;102056.06;5069558;28;20018;-69
2022/10/11 07:39:48;;;;;;;;;;;;;;;17.57;54.58;102055.81;5065707;28;19941;-69
2022/10/11 07:42:14;;;;;;;;;;;;;;;18.15;53.59;102050.44;5082504;28;19924;-69
2022/10/11 07:44:42;;;;;;;;;;;;;;;18.42;53.00;102062.00;5071273;28;19954;-69
2022/10/11 07:47:08;;;;;;;;;;;;;;;18.27;53.01;102056.78;5066744;28;19964;-69
2022/10/11 07:49:35;;;;;;;;;;;;;;;18.95;51.74;102060.38;5073648;28;19923;-69
2022/10/11 07:52:01;;;;;;;;;;;;;;;19.74;49.93;102069.16;5086879;28;20295;-69
2022/10/11 07:54:27;;;;;;;;;;;;;;;19.17;49.45;102060.66;5072643;28;19928;-69
2022/10/11 07:56:53;;;;;;;;;;;;;;;19.38;50.29;102069.84;5075227;28;19932;-69
2022/10/11 07:59:20;;;;;;;;;;;;;;;19.23;50.66;102059.38;5065068;28;20578;-69
2022/10/11 08:01:47;;;;;;;;;;;;;;;19.74;49.30;102060.31;5060975;28;19925;-70
2022/10/11 08:04:14;;;;;;;;;;;;;;;20.34;48.66;102063.19;5073606;28;19946;-69
2022/10/11 08:06:41;;;;;;;;;;;;;;;20.60;48.84;102061.28;5079381;28;19924;-69
2022/10/11 08:09:08;;;;;;;;;;;;;;;21.36;45.85;102067.13;5062742;28;20031;-70
2022/10/11 08:11:35;;;;;;;;;;;;;;;21.07;45.91;102066.63;5074676;28;20389;-69
2022/10/11 08:14:04;;;;;;;;;;;;;;;21.43;45.10;102062.19;5070748;28;19928;-69
2022/10/11 08:16:30;;;;;;;;;;;;;;;21.46;45.40;102068.16;5058376;28;20394;-69
2022/10/11 08:18:58;;;;;;;;;;;;;;;21.48;46.50;102074.22;5077011;28;19931;-69
2022/10/11 08:21:25;;;;;;;;;;;;;;;21.49;46.50;102075.06;5070790;28;19932;-69
2022/10/11 08:23:51;;;;;;;;;;;;;;;21.89;46.61;102081.69;5069585;28;19924;-69
2022/10/11 08:26:18;;;;;;;;;;;;;;;21.91;44.09;102084.28;5069703;28;19935;-69
2022/10/11 08:28:44;;;;;;;;;;;;;;;22.21;44.62;102076.50;5073030;28;19924;-69
2022/10/11 08:31:12;;;;;;;;;;;;;;;22.31;45.24;102081.03;5058963;28;20303;-69
2022/10/11 08:33:38;;;;;;;;;;;;;;;22.14;44.23;102078.81;5069630;28;20031;-70
2022/10/11 08:36:06;;;;;;;;;;;;;;;22.09;44.44;102089.03;5084571;28;19924;-70
2022/10/11 08:38:33;;;;;;;;;;;;;;;22.14;44.93;102085.97;5063423;28;19924;-70
2022/10/11 08:41:00;;;;;;;;;;;;;;;22.07;44.15;102090.97;5078381;28;19930;-70
2022/10/11 08:43:35;;;;;;;;;;;;;;;22.23;43.19;102086.13;5075960;28;19933;-70
2022/10/11 08:46:04;;;;;;;;;;;;;;;22.72;42.46;102083.06;5069951;28;19924;-70
2022/10/11 08:48:33;;;;;;;;;;;;;;;23.17;42.85;102086.41;5077663;28;19946;-70
2022/10/11 08:50:59;;;;;;;;;;;;;;;23.36;41.08;102075.03;5077888;28;19932;-70
2022/10/11 08:53:32;;;;;;;;;;;;;;;23.50;41.33;102081.94;5071614;28;19924;-70
2022/10/11 08:56:00;;;;;;;;;;;;;;;23.52;40.06;102079.97;5070809;28;19928;-70
2022/10/11 08:58:35;;;;;;;;;;;;;;;23.43;43.08;102078.09;5058187;28;19924;-70
2022/10/11 09:01:02;;;;;;;;;;;;;;;23.42;38.77;102079.06;5072325;28;20276;-70
2022/10/11 09:03:34;;;;;;;;;;;;;;;24.17;38.97;102079.66;5062222;28;19924;-70
2022/10/11 09:06:06;;;;;;;;;;;;;;;24.46;38.23;102086.00;5069247;28;19932;-70
2022/10/11 09:08:38;;;;;;;;;;;;;;;24.38;39.11;102085.81;5069726;28;19928;-70
2022/10/11 09:11:10;;;;;;;;;;;;;;;24.51;37.92;102089.09;5059893;28;19932;-70
2022/10/11 09:13:48;;;;;;;;;;;;;;;24.17;39.52;102083.19;5067045;28;20010;-70
2022/10/11 09:16:19;;;;;;;;;;;;;;;23.94;39.52;102095.03;5040546;28;20348;-70
2022/10/11 09:18:55;;;;;;;;;;;;;;;24.30;39.14;102096.38;5050270;28;20273;-70
2022/10/11 09:21:26;;;;;;;;;;;;;;;24.24;38.98;102089.69;5073523;28;20295;-70
2022/10/11 09:24:03;;;;;;;;;;;;;;;24.37;39.62;102086.78;5088760;28;20299;-70
2022/10/11 09:26:35;;;;;;;;;;;;;;;24.35;39.13;102083.41;5075233;28;20011;-69
2022/10/11 09:29:06;;;;;;;;;;;;;;;24.35;39.19;102082.56;5070765;28;19951;-68
2022/10/11 09:31:33;;;;;;;;;;;;;;;24.69;38.94;102081.22;5070268;28;19923;-69
2022/10/11 09:34:05;;;;;;;;;;;;;;;24.81;39.06;102084.63;5066802;28;19924;-70
2022/10/11 09:36:37;;;;;;;;;;;;;;;25.12;36.73;102083.56;5067310;28;19931;-69
2022/10/11 09:39:07;;;;;;;;;;;;;;;25.07;37.20;102075.94;5069429;28;20295;-69
2022/10/11 09:41:37;;;;;;;;;;;;;;;24.90;37.47;102091.91;5064450;28;19931;-69
2022/10/11 09:44:06;;;;;;;;;;;;;;;24.63;38.13;102088.00;5061450;28;19924;-68
2022/10/11 09:46:35;;;;;;;;;;;;;;;23.87;40.05;102087.66;5063369;28;20399;-68
2022/10/11 09:49:03;;;;;;;;;;;;;;;24.21;39.28;102092.66;5068342;28;19924;-68
2022/10/11 09:51:30;;;;;;;;;;;;;;;23.67;37.45;102094.72;5068916;28;19947;-68
2022/10/11 09:53:58;;;;;;;;;;;;;;;23.03;38.53;102094.75;5058563;28;20401;-68
2022/10/11 09:56:27;;;;;;;;;;;;;;;22.98;40.93;102101.47;5068538;28;20624;-68
2022/10/11 09:59:06;;;;;;;;;;;;;;;22.39;42.08;102092.91;5066604;28;19924;-69
2022/10/11 10:01:35;;;;;;;;;;;;;;;22.15;40.11;102096.56;5067368;28;25690;-68
2022/10/11 10:04:06;;;;;;;;;;;;;;;21.89;41.15;102104.88;5067990;28;19924;-68
2022/10/11 10:06:32;;;;;;;;;;;;;;;21.24;42.13;102098.28;5060496;28;20008;-68
2022/10/11 10:09:18;;;;;;;;;;;;;;;21.08;42.34;102107.50;5069086;28;20394;-68
2022/10/11 10:11:46;;;;;;;;;;;;;;;20.21;44.53;102102.28;5061104;28;19931;-68
2022/10/11 10:14:19;;;;;;;;;;;;;;;19.96;44.81;102108.44;5067970;28;19931;-68
2022/10/11 10:16:46;;;;;;;;;;;;;;;19.85;46.97;102108.34;5068084;28;19932;-68
2022/10/11 10:19:18;;;;;;;;;;;;;;;19.35;46.56;102107.28;5058125;28;19938;-68
2022/10/11 10:21:46;;;;;;;;;;;;;;;19.21;47.60;102117.13;5067963;28;19930;-68
2022/10/11 10:24:18;;;;;;;;;;;;;;;19.15;47.51;102105.09;5067827;28;19924;-68
2022/10/11 10:27:04;;;;;;;;;;;;;;;19.33;48.03;102108.31;5058560;28;19935;-68
2022/10/11 10:29:31;;;;;;;;;;;;;;;19.02;47.71;102109.50;5067227;28;19924;-68
2022/10/11 10:31:58;;;;;;;;;;;;;;;18.86;48.28;102114.09;5058165;28;19932;-69
2022/10/11 10:34:27;;;;;;;;;;;;;;;18.97;49.14;102111.59;5067516;28;20433;-69
2022/10/11 10:36:55;;;;;;;;;;;;;;;18.91;49.48;102118.19;5064887;28;19924;-69
2022/10/11 10:39:25;;;;;;;;;;;;;;;19.25;48.79;102111.50;5057895;28;19971;-69
2022/10/11 10:41:53;;;;;;;;;;;;;;;19.33;49.27;102116.31;5064739;28;19959;-69
2022/10/11 10:44:19;;;;;;;;;;;;;;;19.36;47.53;102118.78;5052947;28;19924;-69
2022/10/11 10:46:50;;;;;;;;;;;;;;;19.19;46.16;102109.25;5068087;28;20376;-70
2022/10/11 10:49:21;;;;;;;;;;;;;;;19.07;49.18;102107.38;5067360;28;19932;-69
2022/10/11 10:51:56;;;;;;;;;;;;;;;19.52;48.17;102110.63;5058683;28;19924;-68
2022/10/11 10:54:29;;;;;;;;;;;;;;;20.32;50.38;102108.56;5077738;28;19953;-69
2022/10/11 10:56:58;;;;;;;;;;;;;;;21.17;46.22;102094.38;5079103;28;19930;-68
2022/10/11 10:59:39;;;;;;;;;;;;;;;21.46;45.47;102102.00;5088309;28;19931;-69
2022/10/11 11:02:10;;;;;;;;;;;;;;;21.65;42.55;102096.97;5085143;28;19928;-69
2022/10/11 11:04:37;;;;;;;;;;;;;;;21.87;41.60;102101.50;5088427;28;19928;-69
2022/10/11 11:07:08;;;;;;;;;;;;;;;21.95;41.06;102102.59;5072838;28;19924;-69
2022/10/11 11:09:42;;;;;;;;;;;;;;;22.23;43.32;102106.66;5058743;28;20033;-67
2022/10/11 11:12:17;;;;;;;;;;;;;;;22.64;42.73;102098.84;5067608;28;19924;-68
2022/10/11 11:14:48;;;;;;;;;;;;;;;22.75;41.74;102092.66;5067983;28;20381;-68
2022/10/11 11:17:24;;;;;;;;;;;;;;;22.58;40.50;102095.81;5066843;28;19932;-67
2022/10/11 11:19:57;;;;;;;;;;;;;;;22.43;39.48;102103.22;5053120;28;19931;-67
2022/10/11 11:22:27;;;;;;;;;;;;;;;21.78;41.09;102105.72;5078002;28;19930;-69
2022/10/11 11:24:57;;;;;;;;;;;;;;;21.53;41.72;102089.88;5087550;28;19931;-69
2022/10/11 11:27:31;;;;;;;;;;;;;;;21.24;41.46;102100.94;5058519;28;20312;-69
2022/10/11 11:30:02;;;;;;;;;;;;;;;20.72;42.61;102093.25;5066147;28;20372;-69
2022/10/11 11:32:32;;;;;;;;;;;;;;;20.35;42.38;102095.06;5067623;28;19924;-68
2022/10/11 11:35:00;;;;;;;;;;;;;;;20.60;42.42;102103.94;5058052;28;19931;-68
2022/10/11 11:37:30;;;;;;;;;;;;;;;20.33;43.17;102099.63;5070182;28;20444;-68
2022/10/11 11:39:59;;;;;;;;;;;;;;;20.35;42.59;102102.19;5069141;28;19924;-69
2022/10/11 11:42:34;;;;;;;;;;;;;;;20.49;43.99;102095.88;5071773;28;19924;-68
2022/10/11 11:45:03;;;;;;;;;;;;;;;20.39;44.79;102096.53;5073561;28;20375;-67
2022/10/11 11:47:32;;;;;;;;;;;;;;;20.76;44.49;102083.22;5061458;28;19931;-68
2022/10/11 11:50:01;;;;;;;;;;;;;;;20.99;42.71;102090.34;5069829;28;19924;-68
2022/10/11 11:52:29;;;;;;;;;;;;;;;21.34;42.56;102085.09;5069160;28;19925;-70
2022/10/11 11:55:02;;;;;;;;;;;;;;;21.41;41.28;102086.31;5061334;28;19927;-68
2022/10/11 11:57:36;;;;;;;;;;;;;;;21.38;41.22;102086.56;5071344;28;19934;-67
2022/10/11 12:00:05;;;;;;;;;;;;;;;21.46;39.65;102083.31;5056339;28;19924;-68
2022/10/11 12:02:37;;;;;;;;;;;;;;;21.73;42.75;102090.03;5081440;28;20639;-68
2022/10/11 12:05:05;;;;;;;;;;;;;;;21.63;41.91;102085.53;5091757;28;19986;-69
2022/10/11 12:07:46;;;;;;;;;;;;;;;21.71;39.29;102081.31;5062043;28;19924;-69
2022/10/11 12:10:23;;;;;;;;;;;;;;;22.09;40.82;102083.69;5070560;28;19924;-69
2022/10/11 12:13:01;;;;;;;;;;;;;;;22.18;38.55;102076.75;5064574;28;19936;-69
2022/10/11 12:15:27;;;;;;;;;;;;;;;21.93;39.47;102079.66;5070545;28;19928;-68
2022/10/11 12:18:05;;;;;;;;;;;;;;;21.94;38.81;102079.56;5059825;28;20354;-68
2022/10/11 12:20:32;;;;;;;;;;;;;;;21.60;38.15;102080.44;5057430;28;20419;-68
2022/10/11 12:23:00;;;;;;;;;;;;;;;21.78;38.04;102077.19;5077299;28;19928;-69
2022/10/11 12:25:43;;;;;;;;;;;;;;;21.73;38.58;102075.84;5071820;28;19933;-68
2022/10/11 12:28:27;;;;;;;;;;;;;;;21.96;39.84;102074.06;5070577;28;19924;-68
2022/10/11 12:31:03;;;;;;;;;;;;;;;21.91;39.69;102076.28;5069782;28;19931;-68
2022/10/11 12:33:44;;;;;;;;;;;;;;;22.12;38.13;102075.44;5070149;28;19932;-69
2022/10/11 12:36:31;;;;;;;;;;;;;;;22.11;38.23;102071.06;5069114;28;19928;-69
2022/10/11 12:39:12;;;;;;;;;;;;;;;22.29;37.41;102074.09;5054156;28;19932;-69
2022/10/11 12:41:50;;;;;;;;;;;;;;;22.67;36.40;102068.31;5068318;28;20509;-69
2022/10/11 12:44:21;;;;;;;;;;;;;;;22.41;36.57;102066.91;5060584;28;20053;-69
2022/10/11 12:47:09;;;;;;;;;;;;;;;22.45;37.74;102061.19;5068281;28;20303;-68